createdAt,value
2019-03-22T00:00:41.003Z,7.98
2019-03-22T00:01:41.019Z,8.02
2019-03-22T00:02:40.984Z,7.83
2019-03-22T00:03:40.969Z,7.90
2019-03-22T00:04:40.962Z,7.83
2019-03-22T00:05:40.947Z,7.74
2019-03-22T00:06:40.975Z,7.57
2019-03-22T00:07:40.924Z,7.49
2019-03-22T00:08:40.918Z,7.39
2019-03-22T00:09:40.905Z,7.32
2019-03-22T00:10:40.893Z,7.45
2019-03-22T00:11:40.906Z,7.40
2019-03-22T00:12:40.879Z,7.37
2019-03-22T00:13:40.859Z,7.40
2019-03-22T00:14:40.849Z,7.17
2019-03-22T00:15:40.839Z,7.12
2019-03-22T00:16:40.857Z,7.13
2019-03-22T00:17:40.816Z,7.10
2019-03-22T00:18:40.806Z,7.25
2019-03-22T00:19:40.794Z,7.32
2019-03-22T00:20:40.785Z,7.32
2019-03-22T00:21:40.773Z,7.40
2019-03-22T00:22:40.786Z,7.45
2019-03-22T00:23:40.752Z,7.48
2019-03-22T00:24:40.737Z,7.35
2019-03-22T00:25:40.729Z,7.34
2019-03-22T00:26:40.719Z,7.32
2019-03-22T00:27:40.732Z,7.39
2019-03-22T00:28:40.714Z,7.37
2019-03-22T00:29:40.683Z,7.31
2019-03-22T00:30:40.672Z,7.31
2019-03-22T00:31:40.675Z,7.39
2019-03-22T00:32:40.680Z,7.46
2019-03-22T00:33:40.642Z,7.28
2019-03-22T00:34:40.636Z,7.23
2019-03-22T00:35:40.615Z,7.10
2019-03-22T00:36:40.606Z,7.13
2019-03-22T00:37:40.623Z,7.12
2019-03-22T00:38:40.584Z,7.12
2019-03-22T00:39:40.576Z,7.05
2019-03-22T00:40:40.573Z,6.89
2019-03-22T00:41:40.554Z,6.88
2019-03-22T00:42:40.565Z,6.89
2019-03-22T00:43:40.527Z,6.74
2019-03-22T00:44:40.518Z,6.79
2019-03-22T00:45:40.511Z,6.94
2019-03-22T00:46:40.499Z,7.03
2019-03-22T00:47:40.511Z,7.13
2019-03-22T00:48:40.480Z,7.15
2019-03-22T00:49:40.466Z,7.12
2019-03-22T00:50:40.452Z,7.15
2019-03-22T00:51:40.446Z,7.02
2019-03-22T00:52:40.459Z,6.91
2019-03-22T00:53:40.421Z,6.77
2019-03-22T00:54:40.408Z,6.77
2019-03-22T00:55:40.397Z,6.84
2019-03-22T00:56:40.388Z,6.81
2019-03-22T00:57:40.415Z,6.81
2019-03-22T00:58:40.367Z,6.85
2019-03-22T00:59:40.352Z,7.02
2019-03-22T01:00:40.350Z,6.94
2019-03-22T01:01:40.331Z,6.92
2019-03-22T01:02:40.328Z,6.85
2019-03-22T01:03:40.334Z,6.89
2019-03-22T01:04:40.300Z,6.91
2019-03-22T01:05:40.292Z,7.05
2019-03-22T01:06:40.277Z,7.10
2019-03-22T01:07:40.264Z,7.09
2019-03-22T01:08:40.280Z,7.16
2019-03-22T01:09:40.252Z,7.13
2019-03-22T01:10:40.234Z,7.17
2019-03-22T01:11:40.223Z,7.06
2019-03-22T01:12:40.271Z,6.99
2019-03-22T01:13:40.220Z,7.07
2019-03-22T01:14:40.194Z,6.91
2019-03-22T01:15:40.178Z,6.89
2019-03-22T01:16:40.168Z,6.88
2019-03-22T01:17:40.161Z,6.76
2019-03-22T01:18:40.171Z,6.80
2019-03-22T01:19:40.134Z,6.88
2019-03-22T01:20:40.126Z,6.80
2019-03-22T01:21:40.117Z,6.91
2019-03-22T01:22:40.102Z,6.98
2019-03-22T01:23:40.119Z,6.92
2019-03-22T01:24:40.084Z,7.02
2019-03-22T01:25:40.070Z,6.99
2019-03-22T01:26:40.058Z,6.88
2019-03-22T01:27:41.312Z,6.76
2019-03-22T01:28:40.062Z,6.77
2019-03-22T01:29:40.025Z,6.74
2019-03-22T01:30:40.020Z,6.74
2019-03-22T01:31:40.007Z,6.81
2019-03-22T01:32:39.993Z,6.84
2019-03-22T01:33:40.012Z,6.79
2019-03-22T01:34:39.973Z,6.88
2019-03-22T01:35:39.961Z,6.81
2019-03-22T01:36:39.950Z,6.98
2019-03-22T01:37:39.939Z,6.97
2019-03-22T01:38:39.950Z,6.98
2019-03-22T01:39:39.923Z,6.97
2019-03-22T01:40:39.908Z,6.99
2019-03-22T01:41:39.912Z,6.95
2019-03-22T01:42:39.900Z,6.89
2019-03-22T01:43:39.900Z,6.84
2019-03-22T01:44:39.861Z,6.87
2019-03-22T01:45:39.852Z,6.81
2019-03-22T01:46:39.848Z,6.79
2019-03-22T01:47:39.828Z,6.77
2019-03-22T01:48:39.826Z,6.76
2019-03-22T01:49:39.835Z,6.66
2019-03-22T01:50:39.810Z,6.73
2019-03-22T01:51:39.787Z,6.79
2019-03-22T01:52:39.781Z,6.79
2019-03-22T01:53:39.770Z,6.87
2019-03-22T01:54:39.780Z,6.87
2019-03-22T01:55:39.742Z,6.81
2019-03-22T01:56:39.730Z,6.71
2019-03-22T01:57:39.725Z,6.64
2019-03-22T01:58:39.717Z,6.52
2019-03-22T01:59:39.726Z,6.58
2019-03-22T02:00:39.690Z,6.55
2019-03-22T02:01:39.681Z,6.61
2019-03-22T02:02:39.665Z,6.66
2019-03-22T02:03:39.654Z,6.61
2019-03-22T02:04:39.669Z,6.80
2019-03-22T02:05:39.634Z,6.85
2019-03-22T02:06:39.624Z,6.89
2019-03-22T02:07:39.614Z,6.94
2019-03-22T02:08:39.607Z,6.87
2019-03-22T02:09:39.614Z,6.92
2019-03-22T02:10:39.586Z,6.88
2019-03-22T02:11:39.571Z,6.88
2019-03-22T02:12:39.565Z,6.81
2019-03-22T02:13:39.580Z,6.87
2019-03-22T02:14:39.562Z,6.91
2019-03-22T02:15:39.533Z,6.89
2019-03-22T02:16:39.514Z,6.88
2019-03-22T02:17:39.505Z,6.95
2019-03-22T02:18:39.498Z,7.06
2019-03-22T02:19:39.509Z,6.98
2019-03-22T02:20:39.474Z,6.98
2019-03-22T02:21:39.471Z,7.05
2019-03-22T02:22:39.451Z,7.10
2019-03-22T02:23:39.441Z,6.88
2019-03-22T02:24:39.448Z,7.05
2019-03-22T02:25:39.420Z,6.99
2019-03-22T02:26:39.405Z,6.94
2019-03-22T02:27:39.394Z,7.10
2019-03-22T02:28:39.389Z,7.10
2019-03-22T02:29:39.395Z,7.12
2019-03-22T02:30:39.364Z,7.12
2019-03-22T02:31:39.365Z,7.10
2019-03-22T02:32:39.341Z,7.03
2019-03-22T02:33:39.331Z,7.07
2019-03-22T02:34:39.343Z,6.85
2019-03-22T02:35:39.308Z,6.89
2019-03-22T02:36:39.322Z,6.91
2019-03-22T02:37:39.291Z,6.98
2019-03-22T02:38:39.279Z,6.84
2019-03-22T02:39:39.547Z,6.88
2019-03-22T02:40:39.255Z,7.02
2019-03-22T02:41:39.243Z,7.02
2019-03-22T02:42:39.235Z,7.05
2019-03-22T02:43:39.223Z,6.98
2019-03-22T02:44:39.240Z,7.05
2019-03-22T02:45:39.199Z,7.02
2019-03-22T02:46:39.191Z,6.98
2019-03-22T02:47:39.180Z,7.03
2019-03-22T02:48:39.171Z,7.02
2019-03-22T02:49:39.236Z,7.16
2019-03-22T02:50:39.174Z,7.16
2019-03-22T02:51:39.138Z,7.24
2019-03-22T02:52:39.129Z,7.16
2019-03-22T02:53:39.122Z,7.32
2019-03-22T02:54:39.104Z,7.13
2019-03-22T02:55:39.124Z,7.13
2019-03-22T02:56:39.084Z,7.16
2019-03-22T02:57:39.074Z,7.12
2019-03-22T02:58:39.057Z,7.10
2019-03-22T02:59:39.049Z,7.15
2019-03-22T03:00:39.069Z,7.12
2019-03-22T03:01:39.028Z,7.24
2019-03-22T03:02:39.028Z,7.20
2019-03-22T03:03:39.007Z,7.20
2019-03-22T03:04:38.993Z,7.31
2019-03-22T03:05:39.010Z,7.28
2019-03-22T03:06:38.971Z,7.35
2019-03-22T03:07:38.961Z,7.32
2019-03-22T03:08:38.954Z,7.31
2019-03-22T03:09:38.938Z,7.34
2019-03-22T03:10:38.961Z,7.21
2019-03-22T03:11:38.919Z,7.30
2019-03-22T03:12:38.905Z,7.17
2019-03-22T03:13:38.896Z,7.24
2019-03-22T03:14:38.889Z,7.30
2019-03-22T03:15:38.907Z,7.28
2019-03-22T03:16:38.867Z,7.25
2019-03-22T03:17:38.858Z,7.31
2019-03-22T03:18:38.843Z,7.28
2019-03-22T03:19:38.838Z,7.28
2019-03-22T03:20:38.858Z,7.32
2019-03-22T03:21:38.858Z,7.40
2019-03-22T03:22:38.798Z,7.49
2019-03-22T03:23:38.789Z,7.42
2019-03-22T03:24:38.776Z,7.48
2019-03-22T03:25:38.771Z,7.48
2019-03-22T03:26:38.787Z,7.46
2019-03-22T03:27:38.750Z,7.34
2019-03-22T03:28:38.731Z,7.39
2019-03-22T03:29:38.720Z,7.31
2019-03-22T03:30:38.714Z,7.39
2019-03-22T03:31:38.723Z,7.34
2019-03-22T03:32:38.716Z,7.28
2019-03-22T03:33:38.683Z,7.27
2019-03-22T03:34:38.677Z,7.10
2019-03-22T03:35:38.658Z,7.21
2019-03-22T03:36:38.669Z,7.15
2019-03-22T03:37:38.650Z,7.17
2019-03-22T03:38:38.625Z,7.24
2019-03-22T03:39:38.609Z,7.24
2019-03-22T03:40:38.603Z,7.30
2019-03-22T03:41:38.613Z,7.31
2019-03-22T03:42:38.583Z,7.37
2019-03-22T03:43:38.576Z,7.24
2019-03-22T03:44:38.557Z,7.37
2019-03-22T03:45:38.548Z,7.35
2019-03-22T03:46:38.561Z,7.35
2019-03-22T03:47:38.525Z,7.30
2019-03-22T03:48:38.512Z,7.34
2019-03-22T03:49:38.511Z,7.34
2019-03-22T03:50:38.497Z,7.37
2019-03-22T03:51:38.503Z,7.25
2019-03-22T03:52:39.564Z,7.34
2019-03-22T03:53:38.458Z,7.34
2019-03-22T03:54:38.462Z,7.45
2019-03-22T03:55:38.440Z,7.35
2019-03-22T03:56:38.450Z,7.40
2019-03-22T03:57:38.411Z,7.32
2019-03-22T03:58:51.508Z,7.43
2019-03-22T03:59:39.389Z,7.35
2019-03-22T04:00:38.381Z,7.42
2019-03-22T04:01:38.421Z,7.42
2019-03-22T04:02:38.359Z,7.40
2019-03-22T04:03:38.351Z,7.35
2019-03-22T04:04:38.336Z,7.37
2019-03-22T04:05:38.329Z,7.23
2019-03-22T04:06:38.316Z,7.34
2019-03-22T04:07:38.339Z,7.35
2019-03-22T04:08:38.292Z,7.30
2019-03-22T04:09:38.287Z,7.24
2019-03-22T04:10:38.281Z,7.24
2019-03-22T04:11:38.259Z,7.20
2019-03-22T04:12:38.279Z,7.23
2019-03-22T04:13:38.242Z,7.40
2019-03-22T04:14:38.249Z,7.21
2019-03-22T04:15:38.223Z,7.25
2019-03-22T04:16:38.210Z,7.21
2019-03-22T04:17:38.236Z,7.23
2019-03-22T04:18:38.188Z,7.27
2019-03-22T04:19:38.178Z,7.24
2019-03-22T04:20:38.166Z,7.17
2019-03-22T04:21:38.154Z,7.21
2019-03-22T04:22:38.163Z,7.25
2019-03-22T04:23:38.131Z,7.31
2019-03-22T04:24:38.123Z,7.24
2019-03-22T04:25:38.117Z,7.28
2019-03-22T04:26:38.097Z,7.37
2019-03-22T04:27:38.117Z,7.30
2019-03-22T04:28:38.077Z,7.28
2019-03-22T04:29:38.068Z,7.17
2019-03-22T04:30:38.054Z,7.13
2019-03-22T04:31:38.041Z,7.16
2019-03-22T04:32:38.056Z,7.10
2019-03-22T04:33:38.042Z,6.97
2019-03-22T04:34:38.011Z,7.05
2019-03-22T04:35:38.009Z,6.98
2019-03-22T04:36:37.990Z,6.94
2019-03-22T04:37:37.999Z,6.94
2019-03-22T04:38:37.969Z,6.89
2019-03-22T04:39:37.960Z,6.84
2019-03-22T04:40:37.944Z,6.91
2019-03-22T04:41:37.935Z,6.87
2019-03-22T04:42:37.948Z,6.91
2019-03-22T04:43:37.911Z,6.88
2019-03-22T04:44:37.953Z,6.87
2019-03-22T04:45:37.889Z,6.92
2019-03-22T04:46:37.880Z,6.89
2019-03-22T04:47:37.908Z,6.92
2019-03-22T04:48:37.857Z,6.88
2019-03-22T04:49:37.848Z,6.95
2019-03-22T04:50:37.834Z,6.92
2019-03-22T04:51:37.826Z,6.97
2019-03-22T04:52:37.811Z,6.88
2019-03-22T04:53:37.827Z,7.03
2019-03-22T04:54:37.798Z,6.88
2019-03-22T04:55:37.781Z,6.88
2019-03-22T04:56:37.776Z,6.87
2019-03-22T04:57:37.820Z,6.92
2019-03-22T04:58:37.773Z,6.95
2019-03-22T04:59:37.738Z,7.10
2019-03-22T05:00:37.726Z,7.02
2019-03-22T05:01:37.715Z,7.07
2019-03-22T05:02:37.708Z,6.92
2019-03-22T05:03:37.719Z,6.94
2019-03-22T05:04:37.687Z,6.92
2019-03-22T05:05:37.671Z,6.88
2019-03-22T05:06:37.663Z,6.87
2019-03-22T05:07:37.652Z,6.87
2019-03-22T05:08:37.664Z,6.84
2019-03-22T05:09:37.628Z,6.89
2019-03-22T05:10:37.623Z,6.87
2019-03-22T05:11:37.607Z,6.80
2019-03-22T05:12:37.596Z,6.80
2019-03-22T05:13:37.619Z,6.77
2019-03-22T05:14:37.578Z,6.79
2019-03-22T05:15:37.566Z,6.81
2019-03-22T05:16:37.557Z,6.81
2019-03-22T05:17:37.545Z,6.81
2019-03-22T05:18:37.560Z,6.91
2019-03-22T05:19:37.521Z,6.88
2019-03-22T05:20:37.516Z,6.80
2019-03-22T05:21:37.499Z,6.77
2019-03-22T05:22:37.492Z,6.85
2019-03-22T05:23:37.510Z,6.88
2019-03-22T05:24:37.468Z,6.88
2019-03-22T05:25:37.460Z,6.94
2019-03-22T05:26:37.446Z,6.94
2019-03-22T05:27:37.435Z,6.99
2019-03-22T05:28:37.423Z,7.03
2019-03-22T05:29:38.933Z,6.97
2019-03-22T05:30:37.403Z,6.94
2019-03-22T05:31:37.396Z,6.80
2019-03-22T05:32:37.381Z,6.74
2019-03-22T05:33:37.368Z,6.80
2019-03-22T05:34:37.387Z,6.67
2019-03-22T05:35:37.346Z,6.70
2019-03-22T05:36:37.336Z,6.69
2019-03-22T05:37:37.332Z,6.59
2019-03-22T05:38:37.315Z,6.71
2019-03-22T05:39:37.334Z,6.66
2019-03-22T05:40:37.295Z,6.80
2019-03-22T05:41:37.282Z,6.70
2019-03-22T05:42:37.274Z,6.76
2019-03-22T05:43:37.260Z,6.91
2019-03-22T05:44:37.277Z,6.92
2019-03-22T05:45:37.243Z,6.88
2019-03-22T05:46:37.230Z,7.02
2019-03-22T05:47:37.221Z,6.95
2019-03-22T05:48:37.207Z,7.02
2019-03-22T05:49:37.227Z,7.15
2019-03-22T05:50:37.188Z,7.13
2019-03-22T05:51:37.176Z,7.24
2019-03-22T05:52:37.162Z,7.16
2019-03-22T05:53:37.163Z,7.12
2019-03-22T05:54:37.178Z,7.15
2019-03-22T05:55:37.128Z,7.17
2019-03-22T05:56:37.120Z,7.15
2019-03-22T05:57:37.106Z,7.21
2019-03-22T05:58:37.097Z,7.27
2019-03-22T05:59:42.485Z,7.34
2019-03-22T06:00:38.074Z,7.31
2019-03-22T06:01:37.063Z,7.42
2019-03-22T06:02:37.057Z,7.48
2019-03-22T06:03:37.044Z,7.55
2019-03-22T06:04:37.067Z,7.53
2019-03-22T06:05:37.020Z,7.55
2019-03-22T06:06:37.008Z,7.64
2019-03-22T06:07:37.226Z,7.68
2019-03-22T06:08:36.995Z,7.72
2019-03-22T06:09:36.977Z,7.75
2019-03-22T06:10:36.991Z,7.86
2019-03-22T06:11:36.952Z,7.97
2019-03-22T06:12:36.951Z,7.97
2019-03-22T06:13:36.936Z,7.95
2019-03-22T06:14:36.922Z,8.07
2019-03-22T06:15:36.932Z,8.11
2019-03-22T06:16:36.905Z,8.07
2019-03-22T06:17:36.886Z,8.19
2019-03-22T06:18:36.878Z,8.20
2019-03-22T06:19:36.865Z,8.26
2019-03-22T06:20:36.878Z,8.28
2019-03-22T06:21:36.843Z,8.28
2019-03-22T06:22:36.835Z,8.29
2019-03-22T06:23:36.822Z,8.30
2019-03-22T06:24:36.814Z,8.37
2019-03-22T06:25:36.826Z,8.43
2019-03-22T06:26:36.789Z,8.41
2019-03-22T06:27:36.782Z,8.43
2019-03-22T06:28:36.769Z,8.41
2019-03-22T06:29:36.755Z,8.47
2019-03-22T06:30:36.775Z,8.50
2019-03-22T06:31:36.738Z,8.58
2019-03-22T06:32:36.727Z,8.65
2019-03-22T06:33:36.714Z,8.68
2019-03-22T06:34:36.700Z,8.81
2019-03-22T06:35:36.713Z,8.92
2019-03-22T06:36:36.682Z,8.94
2019-03-22T06:37:36.694Z,9.05
2019-03-22T06:38:36.659Z,9.15
2019-03-22T06:39:36.648Z,9.14
2019-03-22T06:40:36.658Z,9.23
2019-03-22T06:41:36.623Z,9.26
2019-03-22T06:42:36.670Z,9.29
2019-03-22T06:43:36.603Z,9.43
2019-03-22T06:44:36.596Z,9.50
2019-03-22T06:45:36.615Z,9.48
2019-03-22T06:46:36.595Z,9.54
2019-03-22T06:47:36.583Z,9.60
2019-03-22T06:48:36.549Z,9.65
2019-03-22T06:49:36.546Z,9.71
2019-03-22T06:50:36.556Z,9.78
2019-03-22T06:51:36.550Z,9.93
2019-03-22T06:52:36.510Z,9.86
2019-03-22T06:53:36.492Z,10.01
2019-03-22T06:54:36.494Z,10.01
2019-03-22T06:55:36.501Z,10.01
2019-03-22T06:56:36.518Z,10.04
2019-03-22T06:57:36.450Z,10.07
2019-03-22T06:58:36.438Z,10.02
2019-03-22T06:59:36.425Z,10.08
2019-03-22T07:00:36.454Z,10.12
2019-03-22T07:01:36.496Z,10.23
2019-03-22T07:02:36.414Z,10.25
2019-03-22T07:03:36.399Z,10.45
2019-03-22T07:04:37.338Z,10.66
2019-03-22T07:05:36.375Z,10.64
2019-03-22T07:06:36.440Z,10.78
2019-03-22T07:07:36.337Z,10.85
2019-03-22T07:08:36.338Z,10.88
2019-03-22T07:09:36.376Z,10.96
2019-03-22T07:10:36.359Z,11.07
2019-03-22T07:11:36.321Z,11.15
2019-03-22T07:12:36.282Z,11.21
2019-03-22T07:13:36.276Z,11.27
2019-03-22T07:14:36.290Z,11.33
2019-03-22T07:15:36.275Z,11.52
2019-03-22T07:16:36.345Z,11.62
2019-03-22T07:17:36.235Z,11.76
2019-03-22T07:18:36.216Z,11.85
2019-03-22T07:19:36.213Z,11.85
2019-03-22T07:20:36.212Z,11.98
2019-03-22T07:21:36.216Z,12.07
2019-03-22T07:22:36.220Z,12.16
2019-03-22T07:23:36.189Z,12.23
2019-03-22T07:24:36.185Z,12.17
2019-03-22T07:25:36.166Z,12.32
2019-03-22T07:26:36.174Z,12.46
2019-03-22T07:27:36.158Z,12.53
2019-03-22T07:28:36.110Z,12.77
2019-03-22T07:29:36.103Z,12.78
2019-03-22T07:30:36.095Z,12.85
2019-03-22T07:31:36.111Z,13.08
2019-03-22T07:32:36.068Z,13.08
2019-03-22T07:33:36.054Z,13.03
2019-03-22T07:34:36.043Z,13.05
2019-03-22T07:35:36.035Z,13.01
2019-03-22T07:36:36.057Z,12.96
2019-03-22T07:37:36.011Z,13.10
2019-03-22T07:38:36.002Z,13.05
2019-03-22T07:39:35.992Z,13.04
2019-03-22T07:40:35.986Z,13.01
2019-03-22T07:41:36.006Z,13.03
2019-03-22T07:42:35.962Z,13.03
2019-03-22T07:43:35.949Z,13.00
2019-03-22T07:44:35.935Z,12.85
2019-03-22T07:45:35.928Z,12.75
2019-03-22T07:46:35.934Z,12.87
2019-03-22T07:47:35.901Z,12.89
2019-03-22T07:48:35.897Z,13.00
2019-03-22T07:49:35.930Z,12.93
2019-03-22T07:50:35.868Z,13.00
2019-03-22T07:51:35.883Z,13.01
2019-03-22T07:52:35.868Z,13.14
2019-03-22T07:53:35.843Z,13.08
2019-03-22T07:54:35.831Z,13.10
2019-03-22T07:55:35.822Z,13.10
2019-03-22T07:56:35.830Z,13.19
2019-03-22T07:57:35.802Z,13.22
2019-03-22T07:58:35.783Z,13.41
2019-03-22T07:59:35.774Z,13.42
2019-03-22T08:00:35.763Z,13.54
2019-03-22T08:01:35.790Z,13.51
2019-03-22T08:02:35.753Z,13.62
2019-03-22T08:03:35.731Z,13.81
2019-03-22T08:04:35.720Z,13.79
2019-03-22T08:05:35.709Z,13.95
2019-03-22T08:06:35.729Z,14.09
2019-03-22T08:07:35.687Z,14.15
2019-03-22T08:08:35.678Z,14.22
2019-03-22T08:09:35.700Z,14.42
2019-03-22T08:10:35.978Z,14.60
2019-03-22T08:11:35.655Z,14.52
2019-03-22T08:12:35.939Z,14.64
2019-03-22T08:13:35.661Z,14.61
2019-03-22T08:14:35.643Z,14.65
2019-03-22T08:15:35.627Z,14.68
2019-03-22T08:16:35.596Z,14.77
2019-03-22T08:17:35.637Z,14.83
2019-03-22T08:18:35.569Z,14.83
2019-03-22T08:19:35.612Z,14.86
2019-03-22T08:20:35.587Z,15.02
2019-03-22T08:21:35.557Z,15.14
2019-03-22T08:22:35.611Z,15.06
2019-03-22T08:23:35.514Z,15.09
2019-03-22T08:24:35.565Z,15.19
2019-03-22T08:25:35.494Z,15.20
2019-03-22T08:26:35.849Z,15.28
2019-03-22T08:27:35.504Z,15.29
2019-03-22T08:28:35.473Z,15.32
2019-03-22T08:29:35.452Z,15.43
2019-03-22T08:30:43.038Z,15.41
2019-03-22T08:31:36.434Z,15.49
2019-03-22T08:32:35.452Z,15.50
2019-03-22T08:33:35.428Z,15.53
2019-03-22T08:34:35.400Z,15.44
2019-03-22T08:35:35.387Z,15.51
2019-03-22T08:36:35.405Z,15.56
2019-03-22T08:37:35.392Z,15.65
2019-03-22T08:38:35.391Z,15.74
2019-03-22T08:39:35.362Z,15.84
2019-03-22T08:40:35.334Z,15.78
2019-03-22T08:41:35.366Z,15.92
2019-03-22T08:42:35.369Z,15.87
2019-03-22T08:43:35.302Z,15.92
2019-03-22T08:44:35.319Z,15.94
2019-03-22T08:45:35.283Z,16.08
2019-03-22T08:46:35.270Z,16.08
2019-03-22T08:47:35.287Z,16.11
2019-03-22T08:48:35.259Z,16.23
2019-03-22T08:49:35.512Z,16.34
2019-03-22T08:50:35.264Z,16.33
2019-03-22T08:51:35.221Z,16.34
2019-03-22T08:52:35.280Z,16.20
2019-03-22T08:53:35.198Z,16.35
2019-03-22T08:54:38.199Z,16.46
2019-03-22T08:55:35.187Z,16.49
2019-03-22T08:56:36.254Z,16.52
2019-03-22T08:57:35.327Z,16.52
2019-03-22T08:58:35.204Z,16.46
2019-03-22T08:59:35.140Z,16.61
2019-03-22T09:00:39.439Z,16.68
2019-03-22T09:01:35.151Z,16.71
2019-03-22T09:02:35.165Z,16.94
2019-03-22T09:03:35.094Z,16.86
2019-03-22T09:04:35.125Z,16.85
2019-03-22T09:05:35.074Z,16.85
2019-03-22T09:06:35.058Z,16.88
2019-03-22T09:07:35.455Z,16.88
2019-03-22T09:08:35.037Z,16.89
2019-03-22T09:09:41.323Z,16.83
2019-03-22T09:10:36.015Z,17.03
2019-03-22T09:11:35.006Z,17.03
2019-03-22T09:12:35.058Z,17.08
2019-03-22T09:13:35.024Z,17.12
2019-03-22T09:14:34.979Z,17.06
2019-03-22T09:15:41.148Z,17.14
2019-03-22T09:16:35.953Z,17.07
2019-03-22T09:17:34.942Z,17.14
2019-03-22T09:18:34.956Z,17.03
2019-03-22T09:19:34.922Z,17.00
2019-03-22T09:20:34.919Z,17.11
2019-03-22T09:21:34.909Z,17.07
2019-03-22T09:22:34.895Z,17.21
2019-03-22T09:23:34.907Z,17.28
2019-03-22T09:24:39.238Z,17.55
2019-03-22T09:25:34.885Z,17.59
2019-03-22T09:26:46.866Z,17.64
2019-03-22T09:27:36.729Z,17.70
2019-03-22T09:28:34.852Z,17.54
2019-03-22T09:29:34.820Z,17.55
2019-03-22T09:30:34.820Z,17.51
2019-03-22T09:31:34.794Z,17.55
2019-03-22T09:32:34.800Z,17.70
2019-03-22T09:33:34.825Z,17.78
2019-03-22T09:34:34.782Z,17.74
2019-03-22T09:35:34.751Z,17.71
2019-03-22T09:36:34.740Z,17.74
2019-03-22T09:37:34.737Z,17.79
2019-03-22T09:38:34.784Z,17.82
2019-03-22T09:39:34.708Z,17.70
2019-03-22T09:40:34.731Z,17.74
2019-03-22T09:41:34.688Z,17.92
2019-03-22T09:42:34.723Z,17.96
2019-03-22T09:43:34.701Z,18.10
2019-03-22T09:44:43.143Z,18.15
2019-03-22T09:45:35.645Z,18.29
2019-03-22T09:46:34.638Z,18.35
2019-03-22T09:47:34.633Z,18.33
2019-03-22T09:48:34.695Z,18.42
2019-03-22T09:49:34.658Z,18.60
2019-03-22T09:50:34.706Z,18.67
2019-03-22T09:51:34.658Z,18.66
2019-03-22T09:52:34.581Z,18.69
2019-03-22T09:53:34.584Z,18.82
2019-03-22T09:54:34.549Z,18.85
2019-03-22T09:55:34.578Z,19.02
2019-03-22T09:56:46.386Z,18.99
2019-03-22T09:57:35.593Z,18.91
2019-03-22T09:58:34.531Z,18.80
2019-03-22T09:59:34.498Z,18.75
2019-03-22T10:00:34.520Z,18.76
2019-03-22T10:01:34.495Z,18.76
2019-03-22T10:02:34.474Z,18.84
2019-03-22T10:03:34.487Z,19.07
2019-03-22T10:04:34.497Z,19.13
2019-03-22T10:05:34.470Z,19.10
2019-03-22T10:06:34.436Z,19.23
2019-03-22T10:07:34.433Z,19.21
2019-03-22T10:08:34.437Z,19.21
2019-03-22T10:09:34.386Z,19.19
2019-03-22T10:10:34.377Z,19.40
2019-03-22T10:11:34.369Z,19.36
2019-03-22T10:12:34.386Z,19.43
2019-03-22T10:13:34.410Z,19.37
2019-03-22T10:14:34.547Z,19.54
2019-03-22T10:15:34.393Z,19.40
2019-03-22T10:16:34.373Z,19.41
2019-03-22T10:17:34.373Z,19.43
2019-03-22T10:18:36.745Z,19.51
2019-03-22T10:19:34.308Z,19.66
2019-03-22T10:20:34.281Z,19.76
2019-03-22T10:21:34.269Z,19.88
2019-03-22T10:22:34.248Z,20.02
2019-03-22T10:23:34.267Z,20.11
2019-03-22T10:24:34.271Z,20.28
2019-03-22T10:25:34.249Z,20.41
2019-03-22T10:26:34.210Z,20.14
2019-03-22T10:27:34.306Z,20.31
2019-03-22T10:28:34.183Z,20.47
2019-03-22T10:29:34.206Z,20.42
2019-03-22T10:30:34.168Z,20.43
2019-03-22T10:31:37.343Z,20.70
2019-03-22T10:32:34.245Z,20.58
2019-03-22T10:33:34.148Z,20.33
2019-03-22T10:34:34.171Z,20.23
2019-03-22T10:35:34.219Z,20.17
2019-03-22T10:36:34.130Z,20.33
2019-03-22T10:37:34.156Z,20.55
2019-03-22T10:38:34.078Z,20.70
2019-03-22T10:39:34.092Z,20.94
2019-03-22T10:40:34.147Z,21.06
2019-03-22T10:41:34.079Z,21.34
2019-03-22T10:42:34.033Z,21.14
2019-03-22T10:43:34.056Z,21.13
2019-03-22T10:44:34.081Z,21.03
2019-03-22T10:45:34.029Z,20.69
2019-03-22T10:46:34.001Z,20.70
2019-03-22T10:47:34.024Z,20.72
2019-03-22T10:48:34.005Z,20.58
2019-03-22T10:49:34.019Z,20.39
2019-03-22T10:50:34.009Z,20.39
2019-03-22T10:51:34.005Z,20.74
2019-03-22T10:52:33.953Z,21.07
2019-03-22T10:53:33.919Z,21.22
2019-03-22T10:54:33.978Z,21.31
2019-03-22T10:55:35.508Z,21.12
2019-03-22T10:56:33.883Z,21.01
2019-03-22T10:57:33.874Z,20.67
2019-03-22T10:58:33.861Z,20.54
2019-03-22T10:59:33.874Z,20.73
2019-03-22T11:00:33.840Z,21.03
2019-03-22T11:01:46.440Z,20.87
2019-03-22T11:02:34.849Z,20.92
2019-03-22T11:03:33.839Z,20.98
2019-03-22T11:04:33.830Z,21.09
2019-03-22T11:05:33.786Z,20.74
2019-03-22T11:06:33.803Z,20.66
2019-03-22T11:07:33.765Z,20.69
2019-03-22T11:08:33.760Z,20.67
2019-03-22T11:09:33.769Z,20.88
2019-03-22T11:10:33.732Z,20.74
2019-03-22T11:11:33.726Z,20.85
2019-03-22T11:12:33.711Z,20.54
2019-03-22T11:13:33.701Z,20.52
2019-03-22T11:14:33.728Z,20.61
2019-03-22T11:15:33.693Z,20.57
2019-03-22T11:16:33.681Z,20.77
2019-03-22T11:17:33.680Z,20.94
2019-03-22T11:18:37.566Z,21.14
2019-03-22T11:19:33.656Z,21.17
2019-03-22T11:20:33.667Z,21.19
2019-03-22T11:21:33.617Z,21.22
2019-03-22T11:22:33.604Z,21.32
2019-03-22T11:23:33.593Z,21.52
2019-03-22T11:24:33.583Z,21.65
2019-03-22T11:25:33.598Z,21.58
2019-03-22T11:26:33.565Z,21.64
2019-03-22T11:27:33.551Z,21.75
2019-03-22T11:28:33.543Z,21.58
2019-03-22T11:29:33.529Z,21.19
2019-03-22T11:30:33.544Z,21.43
2019-03-22T11:31:39.876Z,21.40
2019-03-22T11:32:34.509Z,21.28
2019-03-22T11:33:33.490Z,21.04
2019-03-22T11:34:33.476Z,21.09
2019-03-22T11:35:33.491Z,21.34
2019-03-22T11:36:33.461Z,21.53
2019-03-22T11:37:33.446Z,21.65
2019-03-22T11:38:33.540Z,21.68
2019-03-22T11:39:33.654Z,21.61
2019-03-22T11:40:33.839Z,21.75
2019-03-22T11:41:33.415Z,21.80
2019-03-22T11:42:33.407Z,21.59
2019-03-22T11:43:33.487Z,21.64
2019-03-22T11:44:33.372Z,21.52
2019-03-22T11:45:33.413Z,21.50
2019-03-22T11:46:33.349Z,21.31
2019-03-22T11:47:33.364Z,21.32
2019-03-22T11:48:33.373Z,21.52
2019-03-22T11:49:33.317Z,21.61
2019-03-22T11:50:33.371Z,21.62
2019-03-22T11:51:33.306Z,21.50
2019-03-22T11:52:33.300Z,21.77
2019-03-22T11:53:33.297Z,22.03
2019-03-22T11:54:33.422Z,21.98
2019-03-22T11:55:33.304Z,22.18
2019-03-22T11:56:33.249Z,22.05
2019-03-22T11:57:33.232Z,22.07
2019-03-22T11:58:33.755Z,22.21
2019-03-22T11:59:33.494Z,22.27
2019-03-22T12:00:33.350Z,22.28
2019-03-22T12:01:33.295Z,22.24
2019-03-22T12:02:33.192Z,22.31
2019-03-22T12:03:33.167Z,22.75
2019-03-22T12:04:33.172Z,22.68
2019-03-22T12:05:40.313Z,22.62
2019-03-22T12:06:34.144Z,22.91
2019-03-22T12:07:33.171Z,23.01
2019-03-22T12:08:33.132Z,23.16
2019-03-22T12:09:33.107Z,23.42
2019-03-22T12:10:33.165Z,23.31
2019-03-22T12:11:33.086Z,23.19
2019-03-22T12:12:33.108Z,22.92
2019-03-22T12:13:34.711Z,23.00
2019-03-22T12:14:33.062Z,23.20
2019-03-22T12:15:33.064Z,23.33
2019-03-22T12:16:33.028Z,23.61
2019-03-22T12:17:33.020Z,23.38
2019-03-22T12:18:33.007Z,23.33
2019-03-22T12:19:32.995Z,23.40
2019-03-22T12:20:33.009Z,23.79
2019-03-22T12:21:32.986Z,23.91
2019-03-22T12:22:32.971Z,23.88
2019-03-22T12:23:32.953Z,23.85
2019-03-22T12:24:32.944Z,23.83
2019-03-22T12:25:32.974Z,23.55
2019-03-22T12:26:32.923Z,23.58
2019-03-22T12:27:36.715Z,23.15
2019-03-22T12:28:32.909Z,23.32
2019-03-22T12:29:34.346Z,23.36
2019-03-22T12:30:32.877Z,23.36
2019-03-22T12:31:32.892Z,23.48
2019-03-22T12:32:32.857Z,23.42
2019-03-22T12:33:32.845Z,23.00
2019-03-22T12:34:32.836Z,23.19
2019-03-22T12:35:32.845Z,23.27
2019-03-22T12:36:32.838Z,23.75
2019-03-22T12:37:32.806Z,23.87
2019-03-22T12:38:32.793Z,23.48
2019-03-22T12:39:32.781Z,23.40
2019-03-22T12:40:32.789Z,23.57
2019-03-22T12:41:32.784Z,23.68
2019-03-22T12:42:32.753Z,23.72
2019-03-22T12:43:34.235Z,23.87
2019-03-22T12:44:32.729Z,23.20
2019-03-22T12:45:32.731Z,23.22
2019-03-22T12:46:32.734Z,23.48
2019-03-22T12:47:32.696Z,23.73
2019-03-22T12:48:32.697Z,23.78
2019-03-22T12:49:32.675Z,23.48
2019-03-22T12:50:32.671Z,23.55
2019-03-22T12:51:32.678Z,23.54
2019-03-22T12:52:32.643Z,23.83
2019-03-22T12:53:32.632Z,23.69
2019-03-22T12:54:32.623Z,23.93
2019-03-22T12:55:32.613Z,24.27
2019-03-22T12:56:32.623Z,24.27
2019-03-22T12:57:32.589Z,24.16
2019-03-22T12:58:32.578Z,24.24
2019-03-22T12:59:32.568Z,24.10
2019-03-22T13:00:32.557Z,24.10
2019-03-22T13:01:32.605Z,24.06
2019-03-22T13:02:41.867Z,24.10
2019-03-22T13:03:33.522Z,24.09
2019-03-22T13:04:32.512Z,23.88
2019-03-22T13:05:32.503Z,23.95
2019-03-22T13:06:32.491Z,23.94